createdAt,value
2023-02-03T00:03:23.101Z,8.80
2023-02-03T00:08:30.276Z,10.90
2023-02-03T00:13:37.873Z,10.77
2023-02-03T00:18:44.886Z,9.67
2023-02-03T00:23:51.723Z,12.03
2023-02-03T00:29:00.837Z,8.17
2023-02-03T00:34:08.108Z,9.83
2023-02-03T00:39:15.796Z,9.70
2023-02-03T00:44:22.771Z,9.60
2023-02-03T00:49:30.729Z,12.43
2023-02-03T00:54:38.283Z,10.43
2023-02-03T00:59:45.265Z,14.47
2023-02-03T01:04:52.304Z,10.07
2023-02-03T01:09:59.290Z,9.53
2023-02-03T01:15:06.615Z,12.67
2023-02-03T01:20:14.245Z,14.57
2023-02-03T01:25:21.369Z,11.57
2023-02-03T01:30:28.779Z,8.23
2023-02-03T01:35:36.619Z,9.90
2023-02-03T01:40:45.585Z,9.83
2023-02-03T01:45:53.015Z,10.27
2023-02-03T01:51:02.037Z,7.47
2023-02-03T01:56:10.293Z,10.57
2023-02-03T02:01:19.534Z,8.27
2023-02-03T02:06:27.771Z,11.13
2023-02-03T02:11:35.000Z,6.57
2023-02-03T02:16:44.852Z,10.23
2023-02-03T02:21:53.430Z,9.43
2023-02-03T02:27:03.333Z,9.77
2023-02-03T02:32:13.075Z,11.03
2023-02-03T02:37:22.857Z,8.47
2023-02-03T02:42:33.823Z,8.30
2023-02-03T02:47:40.735Z,8.03
2023-02-03T02:52:49.424Z,8.80
2023-02-03T02:58:00.719Z,7.17
2023-02-03T03:03:11.207Z,7.43
2023-02-03T03:08:20.364Z,4.20
2023-02-03T03:13:30.157Z,5.77
2023-02-03T03:18:42.840Z,6.87
2023-02-03T03:23:52.644Z,4.53
2023-02-03T03:29:02.508Z,3.60
2023-02-03T03:34:12.005Z,5.17
2023-02-03T03:39:21.790Z,7.17
2023-02-03T03:44:31.556Z,8.40
2023-02-03T03:49:41.685Z,8.47
2023-02-03T03:54:50.952Z,8.53
2023-02-03T03:59:58.899Z,8.03
2023-02-03T04:05:07.251Z,7.43
2023-02-03T04:10:17.246Z,9.87
2023-02-03T04:15:24.287Z,6.30
2023-02-03T04:20:32.759Z,7.93
2023-02-03T04:25:39.658Z,6.70
2023-02-03T04:30:46.637Z,8.03
2023-02-03T04:35:53.900Z,8.27
2023-02-03T04:41:01.259Z,7.77
2023-02-03T04:46:08.152Z,6.33
2023-02-03T04:51:15.189Z,5.90
2023-02-03T04:56:25.076Z,6.63
2023-02-03T05:01:31.974Z,7.73
2023-02-03T05:06:38.857Z,8.30
2023-02-03T05:11:45.635Z,6.73
2023-02-03T05:16:52.674Z,8.40
2023-02-03T05:22:00.020Z,11.40
2023-02-03T05:27:07.064Z,6.60
2023-02-03T05:32:13.913Z,5.53
2023-02-03T05:37:21.112Z,7.80
2023-02-03T05:42:28.156Z,8.37
2023-02-03T05:47:34.998Z,9.90
2023-02-03T05:52:42.055Z,9.27
2023-02-03T05:57:48.858Z,9.37
2023-02-03T06:02:57.979Z,8.97
2023-02-03T06:08:05.088Z,9.20
2023-02-03T06:13:14.772Z,9.67
2023-02-03T06:18:22.097Z,10.30
2023-02-03T06:23:28.939Z,7.87
2023-02-03T06:28:35.767Z,6.03
2023-02-03T06:33:42.847Z,5.90
2023-02-03T06:38:50.229Z,6.40
2023-02-03T06:43:57.500Z,10.00
2023-02-03T06:49:04.447Z,6.23
2023-02-03T06:54:13.171Z,6.73
2023-02-03T06:59:20.006Z,7.53
2023-02-03T07:04:28.570Z,9.30
2023-02-03T07:09:35.813Z,8.00
2023-02-03T07:14:42.728Z,5.90
2023-02-03T07:19:49.699Z,8.60
2023-02-03T07:24:56.597Z,6.60
2023-02-03T07:30:03.495Z,5.40
2023-02-03T07:35:10.392Z,7.57
2023-02-03T07:40:17.936Z,9.87
2023-02-03T07:45:25.068Z,5.30
2023-02-03T07:50:33.570Z,4.30
2023-02-03T07:55:40.924Z,4.87
2023-02-03T08:00:47.808Z,6.77
2023-02-03T08:05:54.714Z,8.03
2023-02-03T08:11:01.566Z,6.63
2023-02-03T08:16:08.944Z,9.67
2023-02-03T08:21:16.435Z,8.43
2023-02-03T08:26:23.487Z,6.67
2023-02-03T08:31:31.257Z,6.30
2023-02-03T08:36:39.886Z,4.50
2023-02-03T08:41:46.863Z,5.33
2023-02-03T08:46:55.124Z,6.33
2023-02-03T08:52:02.137Z,4.90
2023-02-03T08:57:09.650Z,6.77
2023-02-03T09:02:19.303Z,5.20
2023-02-03T09:07:26.145Z,6.60
2023-02-03T09:12:33.003Z,5.47
2023-02-03T09:17:39.950Z,8.40
2023-02-03T09:22:47.042Z,6.53
2023-02-03T09:27:54.521Z,9.10
2023-02-03T09:33:01.751Z,5.80
2023-02-03T09:38:09.193Z,8.40
2023-02-03T09:43:18.386Z,6.03
2023-02-03T09:48:30.045Z,6.17
2023-02-03T09:53:44.521Z,5.40
2023-02-03T09:58:53.156Z,4.30
2023-02-03T10:04:02.436Z,4.50
2023-02-03T10:09:12.234Z,5.93
2023-02-03T10:14:22.312Z,3.57
2023-02-03T10:19:32.301Z,4.03
2023-02-03T10:24:42.438Z,5.13
2023-02-03T10:29:52.200Z,8.60
2023-02-03T10:34:59.247Z,9.67
2023-02-03T10:40:06.773Z,8.53
2023-02-03T10:45:14.533Z,9.63
2023-02-03T10:50:26.076Z,9.40
2023-02-03T10:55:33.514Z,9.03
2023-02-03T11:00:40.963Z,12.00
2023-02-03T11:05:47.872Z,11.43
2023-02-03T11:10:57.901Z,24.03
2023-02-03T11:16:07.797Z,7.40
2023-02-03T11:21:17.912Z,4.60
2023-02-03T11:26:27.896Z,4.63
2023-02-03T11:31:36.741Z,6.10
2023-02-03T11:36:43.888Z,6.13
2023-02-03T11:41:51.167Z,4.77
2023-02-03T11:47:01.160Z,4.87
2023-02-03T11:52:09.245Z,3.47
2023-02-03T11:57:19.129Z,6.80
2023-02-03T12:02:27.301Z,4.80
2023-02-03T12:07:37.245Z,5.00
2023-02-03T12:12:47.141Z,6.13
2023-02-03T12:17:57.127Z,4.70
2023-02-03T12:23:07.312Z,5.27
2023-02-03T12:28:23.744Z,7.20
2023-02-03T12:33:27.342Z,4.63
2023-02-03T12:38:37.213Z,6.00
2023-02-03T12:43:48.715Z,6.10
2023-02-03T12:48:58.560Z,3.97
2023-02-03T12:54:08.537Z,6.47
2023-02-03T12:59:18.546Z,5.10
2023-02-03T13:04:28.332Z,6.07
2023-02-03T13:09:38.737Z,7.53
2023-02-03T13:14:47.866Z,9.43
2023-02-03T13:19:57.807Z,5.43
2023-02-03T13:25:07.755Z,4.40
2023-02-03T13:30:18.111Z,5.63
2023-02-03T13:35:33.758Z,4.53
2023-02-03T13:40:39.559Z,4.53
2023-02-03T13:45:49.778Z,6.23
2023-02-03T13:50:59.814Z,6.53
2023-02-03T13:56:10.208Z,4.53
2023-02-03T14:01:20.207Z,4.73
2023-02-03T14:06:30.289Z,3.70
2023-02-03T14:11:36.461Z,4.63
2023-02-03T14:16:47.570Z,5.47
2023-02-03T14:21:55.566Z,4.63
2023-02-03T14:27:06.303Z,5.83
2023-02-03T14:32:15.718Z,5.73
2023-02-03T14:37:26.595Z,4.80
2023-02-03T14:42:37.196Z,4.50
2023-02-03T14:47:47.322Z,7.67
2023-02-03T14:52:58.219Z,7.47
2023-02-03T14:58:08.995Z,8.33
2023-02-03T15:03:20.553Z,6.97
2023-02-03T15:08:31.182Z,7.60
2023-02-03T15:13:39.664Z,5.00
2023-02-03T15:18:47.007Z,5.23
2023-02-03T15:23:55.530Z,4.53
2023-02-03T15:29:08.694Z,4.13
2023-02-03T15:34:18.889Z,5.50
2023-02-03T15:39:28.793Z,6.10
2023-02-03T15:44:38.809Z,6.53
2023-02-03T15:49:47.432Z,6.23
2023-02-03T15:54:57.340Z,3.27
2023-02-03T16:00:07.326Z,5.20
2023-02-03T16:05:18.771Z,4.67
2023-02-03T16:10:29.359Z,5.93
2023-02-03T16:15:37.054Z,5.27
2023-02-03T16:20:46.837Z,6.63
2023-02-03T16:25:57.814Z,5.50
2023-02-03T16:31:09.348Z,5.20
2023-02-03T16:36:17.976Z,4.40
2023-02-03T16:41:26.471Z,5.63
2023-02-03T16:46:35.995Z,5.93
2023-02-03T16:51:44.032Z,5.77
2023-02-03T16:56:52.374Z,5.27
2023-02-03T17:01:59.683Z,5.83
2023-02-03T17:07:06.705Z,8.73
2023-02-03T17:12:15.878Z,7.80
2023-02-03T17:17:22.734Z,6.73
2023-02-03T17:22:30.890Z,7.87
2023-02-03T17:27:38.181Z,8.63
2023-02-03T17:32:45.405Z,6.17
2023-02-03T17:37:53.105Z,9.37
2023-02-03T17:53:43.571Z,6.37
2023-02-03T17:58:50.395Z,9.33
2023-02-03T18:04:00.662Z,5.63
2023-02-03T18:09:10.503Z,8.43
2023-02-03T18:14:18.348Z,7.90
2023-02-03T18:19:25.231Z,9.77
2023-02-03T18:24:32.572Z,8.73
2023-02-03T18:29:41.097Z,5.93
2023-02-03T18:34:48.366Z,5.83
2023-02-03T18:39:55.252Z,7.80
2023-02-03T18:45:03.658Z,7.33
2023-02-03T18:50:11.235Z,7.00
2023-02-03T18:55:18.137Z,5.80
2023-02-03T19:00:27.236Z,9.83
2023-02-03T19:05:34.987Z,7.17
2023-02-03T19:10:41.977Z,8.53
2023-02-03T19:15:50.387Z,8.33
2023-02-03T19:20:57.570Z,8.23
2023-02-03T19:26:04.582Z,10.30
2023-02-03T19:31:15.407Z,11.70
2023-02-03T19:36:22.846Z,11.87
2023-02-03T19:41:31.314Z,10.27
2023-02-03T19:46:38.925Z,10.80
2023-02-03T19:51:46.547Z,9.10
2023-02-03T19:56:54.124Z,6.70
2023-02-03T20:02:13.637Z,11.40
2023-02-03T20:07:13.560Z,10.20
2023-02-03T20:12:20.436Z,11.27
2023-02-03T20:17:27.715Z,8.27
2023-02-03T20:22:34.849Z,10.53
2023-02-03T20:27:42.113Z,7.90
2023-02-03T20:32:50.292Z,9.23
2023-02-03T20:37:57.158Z,9.37
2023-02-03T20:43:07.823Z,11.80
2023-02-03T20:48:15.630Z,11.00
2023-02-03T20:53:25.158Z,12.47
2023-02-03T20:58:35.334Z,10.57
2023-02-03T21:03:45.051Z,10.93
2023-02-03T21:08:52.497Z,11.57
2023-02-03T21:13:59.412Z,10.53
2023-02-03T21:19:08.247Z,8.13
2023-02-03T21:24:18.225Z,10.77
2023-02-03T21:29:28.010Z,10.10
2023-02-03T21:34:37.848Z,14.13
2023-02-03T21:39:44.941Z,12.00
2023-02-03T21:44:53.823Z,14.93
2023-02-03T21:50:01.970Z,14.00
2023-02-03T21:55:11.942Z,9.47
2023-02-03T22:00:21.733Z,11.50
2023-02-03T22:05:28.765Z,8.13
2023-02-03T22:10:36.241Z,10.83
2023-02-03T22:15:44.369Z,11.27
2023-02-03T22:20:51.909Z,9.77
2023-02-03T22:25:59.177Z,11.50
2023-02-03T22:31:07.830Z,11.67
2023-02-03T22:36:15.289Z,9.03
2023-02-03T22:41:22.697Z,10.70
2023-02-03T22:46:29.788Z,13.67
2023-02-03T22:51:36.823Z,15.13
2023-02-03T22:56:43.801Z,10.43
2023-02-03T23:01:50.826Z,11.60
2023-02-03T23:06:57.946Z,8.80
2023-02-03T23:12:04.928Z,11.20
2023-02-03T23:17:11.819Z,11.23
2023-02-03T23:22:18.761Z,11.70
2023-02-03T23:27:26.937Z,10.77
2023-02-03T23:32:34.142Z,12.73
2023-02-03T23:37:41.125Z,14.90
2023-02-03T23:42:47.989Z,8.97
2023-02-03T23:47:54.852Z,13.43
2023-02-03T23:53:01.802Z,14.77
2023-02-03T23:58:08.692Z,16.10
